createdAt,value
2022-10-18T00:03:54.889Z,18.17
2022-10-18T00:10:56.877Z,17.73
2022-10-18T00:17:58.624Z,16.45
2022-10-18T00:25:00.565Z,16.95
2022-10-18T00:32:02.363Z,17.23
2022-10-18T00:39:05.584Z,16.60
2022-10-18T00:46:07.511Z,17.75
2022-10-18T00:53:12.437Z,17.15
2022-10-18T01:00:14.663Z,16.90
2022-10-18T01:07:25.738Z,16.27
2022-10-18T01:14:46.290Z,17.00
2022-10-18T01:22:05.712Z,16.33
2022-10-18T01:29:07.634Z,16.38
2022-10-18T01:36:09.382Z,15.70
2022-10-18T01:43:12.538Z,15.48
2022-10-18T01:50:14.316Z,16.88
2022-10-18T01:57:16.390Z,15.95
2022-10-18T02:04:30.484Z,15.13
2022-10-18T02:11:32.851Z,15.43
2022-10-18T02:18:36.742Z,14.48
2022-10-18T02:25:39.367Z,14.40
2022-10-18T02:32:42.015Z,13.98
2022-10-18T02:39:46.182Z,14.52
2022-10-18T02:46:48.348Z,14.15
2022-10-18T02:53:50.185Z,13.90
2022-10-18T03:00:52.143Z,13.98
2022-10-18T03:07:53.852Z,13.00
2022-10-18T03:14:55.616Z,12.75
2022-10-18T03:21:57.508Z,13.48
2022-10-18T03:28:59.535Z,12.48
2022-10-18T03:36:01.567Z,14.30
2022-10-18T03:43:03.343Z,12.70
2022-10-18T03:50:05.263Z,12.82
2022-10-18T03:57:06.999Z,12.93
2022-10-18T04:04:08.852Z,13.45
2022-10-18T04:11:11.526Z,12.63
2022-10-18T04:18:13.420Z,13.02
2022-10-18T04:25:15.356Z,12.45
2022-10-18T04:32:17.170Z,13.70
2022-10-18T04:39:18.969Z,13.35
2022-10-18T04:46:20.833Z,13.73
2022-10-18T04:53:22.701Z,13.90
2022-10-18T05:00:24.639Z,13.55
2022-10-18T05:07:26.521Z,14.75
2022-10-18T05:14:28.242Z,13.77
2022-10-18T05:21:30.134Z,14.63
2022-10-18T05:28:40.829Z,14.27
2022-10-18T05:35:43.281Z,13.80
2022-10-18T05:42:45.061Z,14.70
2022-10-18T05:49:48.769Z,13.43
2022-10-18T05:56:50.652Z,15.50
2022-10-18T06:03:52.537Z,15.98
2022-10-18T06:10:54.714Z,14.85
2022-10-18T06:17:56.641Z,14.07
2022-10-18T06:24:58.554Z,15.23
2022-10-18T06:32:00.314Z,16.55
2022-10-18T06:39:02.865Z,15.65
2022-10-18T06:46:06.978Z,15.75
2022-10-18T06:53:09.323Z,16.15
2022-10-18T07:00:11.472Z,15.77
2022-10-18T07:07:13.162Z,16.15
2022-10-18T07:14:16.412Z,17.35
2022-10-18T07:21:20.140Z,16.65
2022-10-18T07:28:22.085Z,17.40
2022-10-18T07:35:23.886Z,16.25
2022-10-18T07:42:25.620Z,16.98
2022-10-18T07:49:27.514Z,16.77
2022-10-18T07:56:29.319Z,15.93
2022-10-18T08:03:31.086Z,17.33
2022-10-18T08:10:35.106Z,17.02
2022-10-18T08:17:37.282Z,17.40
2022-10-18T08:24:39.205Z,17.63
2022-10-18T08:31:40.996Z,16.85
2022-10-18T08:38:43.674Z,16.45
2022-10-18T08:45:46.251Z,18.60
2022-10-18T08:52:48.126Z,17.13
2022-10-18T08:59:50.048Z,17.88
2022-10-18T09:06:53.469Z,18.80
2022-10-18T09:14:13.980Z,18.60
2022-10-18T09:21:15.712Z,17.15
2022-10-18T09:28:31.426Z,17.58
2022-10-18T09:35:45.318Z,16.83
2022-10-18T09:43:00.259Z,17.20
2022-10-18T09:50:04.332Z,16.25
2022-10-18T09:57:11.530Z,15.27
2022-10-18T10:04:13.288Z,16.15
2022-10-18T10:11:35.591Z,16.15
2022-10-18T10:18:39.667Z,14.98
2022-10-18T10:25:42.472Z,15.68
2022-10-18T10:32:47.017Z,15.65
2022-10-18T10:40:17.812Z,17.00
2022-10-18T10:47:32.090Z,17.42
2022-10-18T10:54:36.650Z,17.08
2022-10-18T11:01:38.646Z,18.48
2022-10-18T11:08:41.803Z,18.67
2022-10-18T11:15:48.553Z,17.70
2022-10-18T11:22:56.602Z,18.58
2022-10-18T11:30:04.218Z,19.02
2022-10-18T11:37:41.794Z,19.42
2022-10-18T11:44:44.237Z,19.48
2022-10-18T11:52:07.826Z,18.48
2022-10-18T11:59:30.268Z,18.33
2022-10-18T12:06:38.934Z,18.42
2022-10-18T12:13:47.119Z,19.15
2022-10-18T12:20:53.763Z,18.48
2022-10-18T12:27:55.919Z,19.27
2022-10-18T12:35:06.992Z,19.75
2022-10-18T12:42:18.037Z,21.00
2022-10-18T12:49:28.749Z,20.15
2022-10-18T12:56:34.453Z,21.55
2022-10-18T13:03:56.573Z,20.25
2022-10-18T13:11:10.586Z,20.27
2022-10-18T13:18:26.999Z,20.50
2022-10-18T13:25:47.458Z,18.65
2022-10-18T13:32:58.485Z,18.42
2022-10-18T13:40:19.146Z,18.00
2022-10-18T13:47:34.463Z,19.90
2022-10-18T13:54:36.492Z,16.08
2022-10-18T14:01:46.522Z,16.70
2022-10-18T14:09:14.027Z,14.98
2022-10-18T14:16:30.639Z,20.38
2022-10-18T14:23:37.204Z,13.88
2022-10-18T14:30:53.201Z,14.45
2022-10-18T14:37:55.429Z,15.02
2022-10-18T14:44:57.567Z,14.68
2022-10-18T14:52:00.383Z,19.05
2022-10-18T14:59:03.796Z,15.90
2022-10-18T15:06:07.562Z,14.50
2022-10-18T15:13:13.746Z,13.50
2022-10-18T15:20:19.054Z,12.32
2022-10-18T15:27:30.234Z,14.82
2022-10-18T15:34:32.605Z,10.02
2022-10-18T15:41:40.553Z,12.68
2022-10-18T15:48:42.258Z,12.60
2022-10-18T15:55:48.647Z,11.65
2022-10-18T16:02:50.580Z,9.38
2022-10-18T16:09:52.356Z,9.15
2022-10-18T16:16:55.562Z,7.15
2022-10-18T16:24:00.048Z,6.82
2022-10-18T16:31:03.708Z,6.75
2022-10-18T16:38:06.115Z,6.90
2022-10-18T16:45:08.427Z,8.52
2022-10-18T16:52:10.818Z,6.07
2022-10-18T16:59:20.973Z,6.80
2022-10-18T17:06:30.054Z,7.60
2022-10-18T17:13:32.535Z,7.43
2022-10-18T17:20:34.575Z,7.53
2022-10-18T17:27:37.169Z,5.57
2022-10-18T17:41:43.469Z,3.92
2022-10-18T17:48:46.279Z,3.42
2022-10-18T17:55:48.529Z,3.53
2022-10-18T18:02:51.077Z,4.10
2022-10-18T18:09:53.923Z,7.05
2022-10-18T18:16:56.521Z,7.85
2022-10-18T18:24:00.179Z,6.47
2022-10-18T18:31:07.150Z,5.78
2022-10-18T18:38:10.917Z,5.25
2022-10-18T18:45:14.517Z,4.22
2022-10-18T18:52:20.091Z,6.10
2022-10-18T18:59:23.816Z,8.73
2022-10-18T19:06:45.965Z,9.02
2022-10-18T19:13:49.738Z,8.88
2022-10-18T19:20:55.467Z,12.13
2022-10-18T19:27:58.249Z,11.23
2022-10-18T19:35:01.414Z,12.00
2022-10-18T19:42:10.089Z,8.88
2022-10-18T19:49:13.617Z,8.00
2022-10-18T19:56:17.972Z,5.55
2022-10-18T20:03:20.762Z,6.28
2022-10-18T20:10:22.559Z,6.70
2022-10-18T20:17:24.254Z,6.20
2022-10-18T20:24:26.178Z,7.13
2022-10-18T20:31:29.592Z,7.68
2022-10-18T20:38:35.115Z,7.40
2022-10-18T20:45:36.830Z,8.38
2022-10-18T20:52:38.757Z,9.05
2022-10-18T20:59:40.611Z,9.05
2022-10-18T21:06:43.962Z,9.57
2022-10-18T21:13:50.043Z,9.27
2022-10-18T21:20:53.116Z,9.32
2022-10-18T21:27:55.098Z,10.25
2022-10-18T21:34:57.011Z,10.43
2022-10-18T21:41:59.007Z,9.63
2022-10-18T21:49:00.905Z,9.38
2022-10-18T21:56:07.385Z,8.18
2022-10-18T22:03:10.114Z,8.43
2022-10-18T22:10:13.118Z,8.05
2022-10-18T22:17:15.022Z,8.75
2022-10-18T22:24:17.195Z,9.13
2022-10-18T22:31:20.528Z,9.43
2022-10-18T22:38:22.385Z,10.40
2022-10-18T22:45:24.146Z,9.20
2022-10-18T22:52:25.882Z,8.50
2022-10-18T22:59:27.644Z,7.75
2022-10-18T23:15:13.695Z,8.02
2022-10-18T23:29:36.027Z,7.40
2022-10-18T23:36:37.979Z,7.05
2022-10-18T23:43:40.190Z,7.80
2022-10-18T23:50:42.862Z,8.18
2022-10-18T23:57:44.780Z,7.13
